Time,TemperatureF,DewpointF,PressureIn,WindDirection,WindDirectionDegrees,WindSpeedMPH,WindSpeedGustMPH,Humidity,HourlyPrecipIn,Conditions,Clouds,dailyrainin,SoftwareType,DateUTC
2013-08-21 00:00:00,66.9,61.2,30.12,ENE,72,0.0,0.0,82,0.00,,,0.00,Wunderground v.1.15,2013-08-21 04:00:00,
2013-08-21 00:10:00,67.0,61.0,30.12,ENE,72,0.0,0.0,81,0.00,,,0.00,Wunderground v.1.15,2013-08-21 04:10:00,
2013-08-21 00:20:00,67.1,61.1,30.12,ENE,72,0.0,0.0,81,0.00,,,0.00,Wunderground v.1.15,2013-08-21 04:20:00,
2013-08-21 00:30:00,66.7,61.0,30.12,ENE,72,0.0,0.0,82,0.00,,,0.00,Wunderground v.1.15,2013-08-21 04:30:00,
2013-08-21 00:40:00,66.5,60.8,30.12,ENE,72,0.0,0.0,82,0.00,,,0.00,Wunderground v.1.15,2013-08-21 04:40:00,
2013-08-21 00:50:00,66.5,60.8,30.12,ENE,72,0.0,0.0,82,0.00,,,0.00,Wunderground v.1.15,2013-08-21 04:50:00,
2013-08-21 01:00:00,66.3,60.6,30.12,ENE,72,0.0,0.0,82,0.00,,,0.00,Wunderground v.1.15,2013-08-21 05:00:00,
2013-08-21 01:10:00,66.4,60.7,30.12,ENE,72,0.0,0.0,82,0.00,,,0.00,Wunderground v.1.15,2013-08-21 05:10:00,
2013-08-21 01:20:00,65.8,60.5,30.13,ENE,72,0.0,0.0,83,0.00,,,0.00,Wunderground v.1.15,2013-08-21 05:20:00,
2013-08-21 01:30:00,65.4,60.4,30.13,ENE,72,0.0,0.0,84,0.00,,,0.00,Wunderground v.1.15,2013-08-21 05:30:00,
2013-08-21 01:40:00,65.2,60.2,30.13,ENE,72,0.0,0.0,84,0.00,,,0.00,Wunderground v.1.15,2013-08-21 05:40:00,
2013-08-21 01:50:00,65.1,60.1,30.13,ENE,72,0.0,0.0,84,0.00,,,0.00,Wunderground v.1.15,2013-08-21 05:50:00,
2013-08-21 02:00:00,65.1,60.5,30.13,ENE,72,0.0,0.0,85,0.00,,,0.00,Wunderground v.1.15,2013-08-21 06:00:00,
2013-08-21 02:10:00,65.0,60.4,30.13,ENE,72,0.0,0.0,85,0.00,,,0.00,Wunderground v.1.15,2013-08-21 06:10:00,
2013-08-21 02:20:00,64.3,59.7,30.13,ENE,72,0.0,0.0,85,0.00,,,0.00,Wunderground v.1.15,2013-08-21 06:20:00,
2013-08-21 02:30:00,63.4,59.8,30.13,ENE,72,0.0,0.0,88,0.00,,,0.00,Wunderground v.1.15,2013-08-21 06:30:00,
2013-08-21 02:40:00,62.8,59.5,30.13,ENE,72,0.0,0.0,89,0.00,,,0.00,Wunderground v.1.15,2013-08-21 06:40:00,
2013-08-21 02:50:00,62.5,59.5,30.13,ENE,72,0.0,0.0,90,0.00,,,0.00,Wunderground v.1.15,2013-08-21 06:50:00,
2013-08-21 03:00:00,62.4,60.0,30.13,ENE,72,0.0,0.0,92,0.00,,,0.00,Wunderground v.1.15,2013-08-21 07:00:00,
2013-08-21 03:10:00,62.6,60.8,30.13,ENE,72,0.0,0.0,94,0.00,,,0.00,Wunderground v.1.15,2013-08-21 07:10:00,
2013-08-21 03:20:00,62.2,60.2,30.13,ENE,72,0.0,0.0,93,0.00,,,0.00,Wunderground v.1.15,2013-08-21 07:20:00,
2013-08-21 03:30:00,62.0,60.3,30.13,ENE,72,0.0,0.0,94,0.00,,,0.00,Wunderground v.1.15,2013-08-21 07:30:00,
2013-08-21 03:40:00,61.6,59.9,30.13,ENE,72,0.0,0.0,94,0.00,,,0.00,Wunderground v.1.15,2013-08-21 07:40:00,
2013-08-21 03:50:00,61.5,60.1,30.13,ENE,72,0.0,0.0,95,0.00,,,0.00,Wunderground v.1.15,2013-08-21 07:50:00,
2013-08-21 04:00:00,61.4,60.0,30.13,ENE,72,0.0,0.0,95,0.00,,,0.00,Wunderground v.1.15,2013-08-21 08:00:00,
2013-08-21 04:10:00,61.1,59.7,30.14,ENE,72,0.0,0.0,95,0.00,,,0.00,Wunderground v.1.15,2013-08-21 08:10:00,
2013-08-21 04:20:00,60.6,59.2,30.14,ENE,72,0.0,0.0,95,0.00,,,0.00,Wunderground v.1.15,2013-08-21 08:20:00,
2013-08-21 04:30:00,60.2,58.8,30.14,ENE,72,0.0,0.0,95,0.00,,,0.00,Wunderground v.1.15,2013-08-21 08:30:00,
2013-08-21 04:40:00,60.1,59.0,30.14,ENE,72,0.0,0.0,96,0.00,,,0.00,Wunderground v.1.15,2013-08-21 08:40:00,
2013-08-21 04:50:00,60.0,58.9,30.14,ENE,72,0.0,0.0,96,0.00,,,0.00,Wunderground v.1.15,2013-08-21 08:50:00,
2013-08-21 05:00:00,59.9,58.8,30.14,ENE,72,0.0,0.0,96,0.00,,,0.00,Wunderground v.1.15,2013-08-21 09:00:00,
2013-08-21 05:10:00,60.1,59.2,30.14,ENE,72,0.0,0.0,97,0.00,,,0.00,Wunderground v.1.15,2013-08-21 09:10:00,
2013-08-21 05:20:00,60.2,59.3,30.14,ENE,72,0.0,0.0,97,0.00,,,0.00,Wunderground v.1.15,2013-08-21 09:20:00,
2013-08-21 05:30:00,60.3,59.4,30.15,ENE,72,0.0,0.0,97,0.00,,,0.00,Wunderground v.1.15,2013-08-21 09:30:00,
2013-08-21 05:40:00,60.4,59.5,30.15,ENE,72,0.0,0.0,97,0.00,,,0.00,Wunderground v.1.15,2013-08-21 09:40:00,
2013-08-21 05:50:00,60.5,59.6,30.15,ENE,72,0.0,0.0,97,0.00,,,0.00,Wunderground v.1.15,2013-08-21 09:50:00,
2013-08-21 06:00:00,60.1,59.0,30.15,ENE,72,0.0,0.0,96,0.00,,,0.00,Wunderground v.1.15,2013-08-21 10:00:00,
2013-08-21 06:30:00,59.5,58.6,30.16,ENE,72,0.0,0.0,97,0.00,,,0.00,Wunderground v.1.15,2013-08-21 10:30:00,
2013-08-21 06:40:00,59.7,58.8,30.16,ENE,72,0.0,0.0,97,0.00,,,0.00,Wunderground v.1.15,2013-08-21 10:40:00,
2013-08-21 06:50:00,60.0,59.1,30.16,ENE,72,0.0,0.0,97,0.00,,,0.00,Wunderground v.1.15,2013-08-21 10:50:00,
2013-08-21 07:00:00,60.6,59.7,30.16,ENE,72,0.0,0.0,97,0.00,,,0.00,Wunderground v.1.15,2013-08-21 11:00:00,
2013-08-21 07:10:00,60.9,60.0,30.16,ENE,72,0.0,0.0,97,0.00,,,0.00,Wunderground v.1.15,2013-08-21 11:10:00,
2013-08-21 07:20:00,61.0,59.9,30.17,ENE,72,0.0,0.0,96,0.00,,,0.00,Wunderground v.1.15,2013-08-21 11:20:00,
2013-08-21 07:30:00,61.1,60.0,30.17,ENE,72,0.0,0.0,96,0.00,,,0.00,Wunderground v.1.15,2013-08-21 11:30:00,
2013-08-21 07:40:00,61.1,60.0,30.17,ENE,72,0.0,0.0,96,0.00,,,0.00,Wunderground v.1.15,2013-08-21 11:40:00,
2013-08-21 07:50:00,61.4,60.5,30.17,ENE,72,0.0,0.0,97,0.00,,,0.00,Wunderground v.1.15,2013-08-21 11:50:00,
2013-08-21 08:00:00,62.3,61.4,30.17,ENE,72,0.0,0.0,97,0.00,,,0.00,Wunderground v.1.15,2013-08-21 12:00:00,
2013-08-21 08:10:00,62.9,62.0,30.17,ENE,72,0.0,0.0,97,0.00,,,0.00,Wunderground v.1.15,2013-08-21 12:10:00,
2013-08-21 08:20:00,63.4,62.2,30.17,East,95,0.0,0.0,96,0.00,,,0.00,Wunderground v.1.15,2013-08-21 12:20:00,
2013-08-21 08:30:00,63.8,62.3,30.18,East,95,0.0,0.0,95,0.00,,,0.00,Wunderground v.1.15,2013-08-21 12:30:00,
2013-08-21 08:40:00,65.0,63.2,30.17,ESE,104,0.0,0.0,94,0.00,,,0.00,Wunderground v.1.15,2013-08-21 12:40:00,
2013-08-21 08:50:00,66.5,63.8,30.17,South,176,0.0,0.0,91,0.00,,,0.00,Wunderground v.1.15,2013-08-21 12:50:00,
2013-08-21 09:00:00,67.6,63.3,30.17,South,181,0.0,0.0,86,0.00,,,0.00,Wunderground v.1.15,2013-08-21 13:00:00,
2013-08-21 09:10:00,68.8,64.1,30.17,South,181,0.0,0.0,85,0.00,,,0.00,Wunderground v.1.15,2013-08-21 13:10:00,
2013-08-21 09:20:00,69.9,64.8,30.17,South,181,0.0,0.0,84,0.00,,,0.00,Wunderground v.1.15,2013-08-21 13:20:00,
2013-08-21 09:30:00,71.2,65.1,30.17,South,181,0.0,0.0,81,0.00,,,0.00,Wunderground v.1.15,2013-08-21 13:30:00,
2013-08-21 09:40:00,72.1,65.6,30.17,South,181,0.0,0.0,80,0.00,,,0.00,Wunderground v.1.15,2013-08-21 13:40:00,
2013-08-21 09:50:00,72.7,65.4,30.17,South,181,0.0,0.0,78,0.00,,,0.00,Wunderground v.1.15,2013-08-21 13:50:00,
2013-08-21 10:00:00,73.4,66.1,30.17,South,181,0.0,0.0,78,0.00,,,0.00,Wunderground v.1.15,2013-08-21 14:00:00,
2013-08-21 10:10:00,73.8,66.5,30.16,South,181,0.0,0.0,78,0.00,,,0.00,Wunderground v.1.15,2013-08-21 14:10:00,
2013-08-21 10:20:00,75.2,67.1,30.17,South,181,0.0,0.0,76,0.00,,,0.00,Wunderground v.1.15,2013-08-21 14:20:00,
2013-08-21 10:30:00,75.7,66.0,30.16,South,182,0.0,0.0,72,0.00,,,0.00,Wunderground v.1.15,2013-08-21 14:30:00,
2013-08-21 10:40:00,76.4,66.3,30.16,South,182,0.0,0.0,71,0.00,,,0.00,Wunderground v.1.15,2013-08-21 14:40:00,
2013-08-21 10:50:00,77.2,66.2,30.16,South,182,0.0,0.0,69,0.00,,,0.00,Wunderground v.1.15,2013-08-21 14:50:00,
2013-08-21 11:00:00,77.1,65.3,30.16,WSW,252,0.0,0.0,67,0.00,,,0.00,Wunderground v.1.15,2013-08-21 15:00:00,
2013-08-21 11:10:00,76.9,66.0,30.16,WSW,250,0.0,0.0,69,0.00,,,0.00,Wunderground v.1.15,2013-08-21 15:10:00,
2013-08-21 11:20:00,77.3,66.3,30.16,West,281,0.0,0.0,69,0.00,,,0.00,Wunderground v.1.15,2013-08-21 15:20:00,
2013-08-21 11:30:00,78.1,67.5,30.16,WNW,282,0.0,0.0,70,0.00,,,0.00,Wunderground v.1.15,2013-08-21 15:30:00,
2013-08-21 11:40:00,79.2,68.1,30.16,WNW,282,0.0,0.0,69,0.00,,,0.00,Wunderground v.1.15,2013-08-21 15:40:00,
2013-08-21 11:50:00,79.3,68.2,30.15,South,178,0.0,0.0,69,0.00,,,0.00,Wunderground v.1.15,2013-08-21 15:50:00,
2013-08-21 12:00:00,79.1,68.1,30.15,ESE,117,1.0,1.0,69,0.00,,,0.00,Wunderground v.1.15,2013-08-21 16:00:00,
2013-08-21 12:10:00,79.1,67.6,30.14,ESE,122,1.0,1.0,68,0.00,,,0.00,Wunderground v.1.15,2013-08-21 16:10:00,
2013-08-21 12:20:00,79.7,69.9,30.14,SSE,148,1.0,1.0,72,0.00,,,0.00,Wunderground v.1.15,2013-08-21 16:20:00,
2013-08-21 12:30:00,80.1,68.6,30.14,SE,134,1.0,2.0,68,0.00,,,0.00,Wunderground v.1.15,2013-08-21 16:30:00,
2013-08-21 12:40:00,80.2,66.5,30.14,SW,236,1.0,1.0,63,0.00,,,0.00,Wunderground v.1.15,2013-08-21 16:40:00,
2013-08-21 12:50:00,80.8,68.8,30.14,SSW,194,0.0,0.0,67,0.00,,,0.00,Wunderground v.1.15,2013-08-21 16:50:00,
2013-08-21 13:00:00,81.0,68.1,30.14,WSW,246,1.0,1.0,65,0.00,,,0.00,Wunderground v.1.15,2013-08-21 17:00:00,
2013-08-21 13:10:00,81.3,68.4,30.13,SW,221,1.0,1.0,65,0.00,,,0.00,Wunderground v.1.15,2013-08-21 17:10:00,
2013-08-21 13:20:00,81.9,69.9,30.13,WSW,246,1.0,1.0,67,0.00,,,0.00,Wunderground v.1.15,2013-08-21 17:20:00,
2013-08-21 13:30:00,81.9,68.5,30.12,SSE,165,2.0,2.0,64,0.00,,,0.00,Wunderground v.1.15,2013-08-21 17:30:00,
2013-08-21 13:40:00,82.4,69.4,30.12,SSW,199,1.0,2.0,65,0.00,,,0.00,Wunderground v.1.15,2013-08-21 17:40:00,
2013-08-21 13:50:00,82.4,68.1,30.12,SSE,165,2.0,3.0,62,0.00,,,0.00,Wunderground v.1.15,2013-08-21 17:50:00,
2013-08-21 14:00:00,82.5,67.7,30.12,NW,306,2.0,2.0,61,0.00,,,0.00,Wunderground v.1.15,2013-08-21 18:00:00,
2013-08-21 14:10:00,82.9,69.0,30.12,South,190,1.0,2.0,63,0.00,,,0.00,Wunderground v.1.15,2013-08-21 18:10:00,
2013-08-21 14:20:00,82.8,68.0,30.11,West,264,2.0,2.0,61,0.00,,,0.00,Wunderground v.1.15,2013-08-21 18:20:00,
2013-08-21 14:30:00,82.8,68.9,30.11,SW,234,2.0,2.0,63,0.00,,,0.00,Wunderground v.1.15,2013-08-21 18:30:00,
2013-08-21 14:40:00,83.3,68.0,30.10,SSE,151,1.0,1.0,60,0.00,,,0.00,Wunderground v.1.15,2013-08-21 18:40:00,
2013-08-21 14:50:00,83.9,68.5,30.10,SW,232,2.0,2.0,60,0.00,,,0.00,Wunderground v.1.15,2013-08-21 18:50:00,
2013-08-21 15:00:00,84.2,70.7,30.10,West,273,1.0,3.0,64,0.00,,,0.00,Wunderground v.1.15,2013-08-21 19:00:00,
2013-08-21 15:10:00,83.7,66.3,30.10,NW,304,2.0,2.0,56,0.00,,,0.00,Wunderground v.1.15,2013-08-21 19:10:00,
2013-08-21 15:20:00,84.5,69.1,30.09,West,262,1.0,1.0,60,0.00,,,0.00,Wunderground v.1.15,2013-08-21 19:20:00,
2013-08-21 15:30:00,84.3,66.9,30.09,NW,304,1.0,4.0,56,0.00,,,0.00,Wunderground v.1.15,2013-08-21 19:30:00,
2013-08-21 15:40:00,84.5,66.0,30.09,WNW,293,2.0,3.0,54,0.00,,,0.00,Wunderground v.1.15,2013-08-21 19:40:00,
2013-08-21 15:50:00,84.2,66.8,30.08,SSW,202,2.0,2.0,56,0.00,,,0.00,Wunderground v.1.15,2013-08-21 19:50:00,
2013-08-21 16:00:00,83.8,65.4,30.08,WNW,298,2.0,2.0,54,0.00,,,0.00,Wunderground v.1.15,2013-08-21 20:00:00,
2013-08-21 16:10:00,84.5,66.6,30.08,WSW,253,1.0,1.0,55,0.00,,,0.00,Wunderground v.1.15,2013-08-21 20:10:00,
2013-08-21 16:20:00,84.5,67.6,30.08,West,262,1.0,2.0,57,0.00,,,0.00,Wunderground v.1.15,2013-08-21 20:20:00,
2013-08-21 16:30:00,83.5,65.6,30.07,WSW,242,2.0,3.0,55,0.00,,,0.00,Wunderground v.1.15,2013-08-21 20:30:00,
2013-08-21 16:40:00,83.4,66.6,30.07,NW,322,1.0,1.0,57,0.00,,,0.00,Wunderground v.1.15,2013-08-21 20:40:00,
2013-08-21 16:50:00,83.4,65.5,30.07,WSW,240,1.0,2.0,55,0.00,,,0.00,Wunderground v.1.15,2013-08-21 20:50:00,
2013-08-21 17:00:00,83.0,67.2,30.08,WNW,294,2.0,2.0,59,0.00,,,0.00,Wunderground v.1.15,2013-08-21 21:00:00,
2013-08-21 17:10:00,82.9,66.1,30.08,NW,311,1.0,1.0,57,0.00,,,0.00,Wunderground v.1.15,2013-08-21 21:10:00,
2013-08-21 17:20:00,82.2,64.4,30.07,WSW,244,2.0,2.0,55,0.00,,,0.00,Wunderground v.1.15,2013-08-21 21:20:00,
2013-08-21 17:30:00,82.2,66.0,30.07,NW,306,1.0,1.0,58,0.00,,,0.00,Wunderground v.1.15,2013-08-21 21:30:00,
2013-08-21 17:40:00,81.9,64.7,30.07,West,264,1.0,1.0,56,0.00,,,0.00,Wunderground v.1.15,2013-08-21 21:40:00,
2013-08-21 17:50:00,81.6,65.9,30.07,WSW,242,1.0,1.0,59,0.00,,,0.00,Wunderground v.1.15,2013-08-21 21:50:00,
2013-08-21 18:00:00,81.6,64.9,30.07,West,261,0.0,4.0,57,0.00,,,0.00,Wunderground v.1.15,2013-08-21 22:00:00,
2013-08-21 18:10:00,81.4,65.2,30.06,WSW,246,0.0,0.0,58,0.00,,,0.00,Wunderground v.1.15,2013-08-21 22:10:00,
2013-08-21 18:20:00,81.5,64.8,30.06,WNW,283,0.0,0.0,57,0.00,,,0.00,Wunderground v.1.15,2013-08-21 22:20:00,
2013-08-21 18:30:00,81.5,64.3,30.05,WNW,283,0.0,0.0,56,0.00,,,0.00,Wunderground v.1.15,2013-08-21 22:30:00,
2013-08-21 18:40:00,81.1,62.9,30.06,WNW,288,0.0,0.0,54,0.00,,,0.00,Wunderground v.1.15,2013-08-21 22:40:00,
2013-08-21 18:50:00,80.3,62.7,30.06,WNW,298,0.0,0.0,55,0.00,,,0.00,Wunderground v.1.15,2013-08-21 22:50:00,
2013-08-21 19:00:00,79.4,62.3,30.05,NW,304,1.0,1.0,56,0.00,,,0.00,Wunderground v.1.15,2013-08-21 23:00:00,
2013-08-21 19:10:00,78.7,62.7,30.05,NW,305,0.0,0.0,58,0.00,,,0.00,Wunderground v.1.15,2013-08-21 23:10:00,
2013-08-21 19:20:00,78.0,62.5,30.05,NW,305,0.0,0.0,59,0.00,,,0.00,Wunderground v.1.15,2013-08-21 23:20:00,
2013-08-21 19:30:00,76.4,62.9,30.05,NW,305,0.0,0.0,63,0.00,,,0.00,Wunderground v.1.15,2013-08-21 23:30:00,
2013-08-21 19:40:00,74.6,63.3,30.05,NW,305,0.0,0.0,68,0.00,,,0.00,Wunderground v.1.15,2013-08-21 23:40:00,
2013-08-21 19:50:00,73.8,62.6,30.05,NW,305,0.0,0.0,68,0.00,,,0.00,Wunderground v.1.15,2013-08-21 23:50:00,
2013-08-21 20:00:00,73.2,62.8,30.05,NW,305,0.0,0.0,70,0.00,,,0.00,Wunderground v.1.15,2013-08-22 00:00:00,
2013-08-21 20:10:00,72.0,62.5,30.06,North,355,0.0,2.0,72,0.00,,,0.00,Wunderground v.1.15,2013-08-22 00:10:00,
2013-08-21 20:20:00,71.3,62.6,30.05,ENE,67,1.0,1.0,74,0.00,,,0.00,Wunderground v.1.15,2013-08-22 00:20:00,
2013-08-21 20:30:00,71.0,62.3,30.05,ENE,67,0.0,0.0,74,0.00,,,0.00,Wunderground v.1.15,2013-08-22 00:30:00,
2013-08-21 20:40:00,70.7,62.0,30.06,ENE,67,0.0,0.0,74,0.00,,,0.00,Wunderground v.1.15,2013-08-22 00:40:00,
2013-08-21 20:50:00,70.3,62.0,30.06,ENE,67,0.0,0.0,75,0.00,,,0.00,Wunderground v.1.15,2013-08-22 00:50:00,
2013-08-21 21:00:00,69.7,61.8,30.06,East,100,0.0,0.0,76,0.00,,,0.00,Wunderground v.1.15,2013-08-22 01:00:00,
2013-08-21 21:10:00,69.5,61.6,30.06,East,100,0.0,0.0,76,0.00,,,0.00,Wunderground v.1.15,2013-08-22 01:10:00,
2013-08-21 21:20:00,69.2,61.3,30.06,East,100,0.0,0.0,76,0.00,,,0.00,Wunderground v.1.15,2013-08-22 01:20:00,
2013-08-21 21:30:00,69.0,61.5,30.05,East,100,0.0,0.0,77,0.00,,,0.00,Wunderground v.1.15,2013-08-22 01:30:00,
2013-08-21 21:40:00,68.6,61.5,30.05,East,100,0.0,0.0,78,0.00,,,0.00,Wunderground v.1.15,2013-08-22 01:40:00,
2013-08-21 21:50:00,68.7,61.6,30.05,East,100,0.0,0.0,78,0.00,,,0.00,Wunderground v.1.15,2013-08-22 01:50:00,
2013-08-21 22:00:00,68.7,61.9,30.05,East,101,0.0,0.0,79,0.00,,,0.00,Wunderground v.1.15,2013-08-22 02:00:00,
2013-08-21 22:10:00,68.3,61.5,30.05,East,101,0.0,0.0,79,0.00,,,0.00,Wunderground v.1.15,2013-08-22 02:10:00,
2013-08-21 22:20:00,67.9,61.9,30.05,East,101,0.0,0.0,81,0.00,,,0.00,Wunderground v.1.15,2013-08-22 02:20:00,
2013-08-21 22:30:00,67.8,61.8,30.05,East,101,0.0,0.0,81,0.00,,,0.00,Wunderground v.1.15,2013-08-22 02:30:00,
2013-08-21 22:40:00,67.5,61.8,30.04,East,101,0.0,0.0,82,0.00,,,0.00,Wunderground v.1.15,2013-08-22 02:40:00,
2013-08-21 22:50:00,67.6,61.9,30.04,ESE,103,0.0,2.0,82,0.00,,,0.00,Wunderground v.1.15,2013-08-22 02:50:00,
2013-08-21 23:00:00,67.6,61.9,30.04,ESE,103,1.0,1.0,82,0.00,,,0.00,Wunderground v.1.15,2013-08-22 03:00:00,
2013-08-21 23:10:00,67.4,62.1,30.04,ESE,103,0.0,0.0,83,0.00,,,0.00,Wunderground v.1.15,2013-08-22 03:10:00,
2013-08-21 23:20:00,67.5,62.2,30.04,ESE,103,0.0,0.0,83,0.00,,,0.00,Wunderground v.1.15,2013-08-22 03:20:00,
2013-08-21 23:30:00,68.1,62.4,30.04,ESE,103,0.0,0.0,82,0.00,,,0.00,Wunderground v.1.15,2013-08-22 03:30:00,
2013-08-21 23:40:00,68.1,62.4,30.04,ESE,103,0.0,0.0,82,0.00,,,0.00,Wunderground v.1.15,2013-08-22 03:40:00,
2013-08-21 23:50:00,67.6,61.9,30.04,ESE,103,0.0,0.0,82,0.00,,,0.00,Wunderground v.1.15,2013-08-22 03:50:00,